Time;durP1;ratioP1;P1;durP2;ratioP2;P2;SDS_P1;SDS_P2;PMS_P1;PMS_P2;Temp;Humidity;BMP_temperature;BMP_pressure;BME280_temperature;BME280_humidity;BME280_pressure;Samples;Min_cycle;Max_cycle;Signal;HPM_P1;HPM_P2
2021/03/20 00:02:04;;;;;;;11.20;8.85;;;24.20;37.40;;;;;;5050753;28;45498;-51
2021/03/20 00:04:29;;;;;;;12.13;8.85;;;24.20;37.40;;;;;;5065564;28;45505;-50
2021/03/20 00:06:56;;;;;;;11.88;8.55;;;24.20;37.40;;;;;;5071596;28;45417;-51
2021/03/20 00:09:24;;;;;;;10.25;8.45;;;24.20;37.40;;;;;;5071056;28;45576;-51
2021/03/20 00:11:50;;;;;;;10.68;7.68;;;24.20;37.40;;;;;;5087828;28;45413;-51
2021/03/20 00:14:18;;;;;;;10.10;8.02;;;24.20;37.40;;;;;;5089321;28;45279;-51
2021/03/20 00:16:44;;;;;;;11.23;8.40;;;24.10;37.40;;;;;;5089729;28;45584;-50
2021/03/20 00:19:10;;;;;;;10.60;7.78;;;24.20;37.40;;;;;;5071906;28;46977;-50
2021/03/20 00:21:35;;;;;;;9.80;7.75;;;24.10;37.40;;;;;;5069780;28;45390;-51
2021/03/20 00:24:01;;;;;;;11.25;8.63;;;24.10;37.40;;;;;;5051956;28;45385;-50
2021/03/20 00:26:27;;;;;;;10.18;7.32;;;24.10;37.40;;;;;;5052065;28;45459;-50
2021/03/20 00:28:53;;;;;;;9.57;7.65;;;24.10;37.40;;;;;;5051661;28;46986;-50
2021/03/20 00:31:19;;;;;;;10.13;7.70;;;24.10;37.40;;;;;;5052000;28;45248;-51
2021/03/20 00:33:44;;;;;;;10.50;7.70;;;24.10;37.40;;;;;;5051763;28;45280;-50
2021/03/20 00:36:11;;;;;;;9.15;7.63;;;24.10;37.40;;;;;;5051903;28;45275;-50
2021/03/20 00:38:37;;;;;;;11.45;7.82;;;24.10;37.40;;;;;;5051562;28;45462;-50
2021/03/20 00:41:02;;;;;;;10.18;8.10;;;24.10;37.40;;;;;;5051543;28;45363;-50
2021/03/20 00:43:28;;;;;;;10.68;8.23;;;24.10;37.40;;;;;;5051616;28;45350;-50
2021/03/20 00:45:54;;;;;;;10.18;8.05;;;24.10;37.50;;;;;;5051774;28;45598;-50
2021/03/20 00:48:28;;;;;;;9.43;7.80;;;24.10;37.50;;;;;;5051190;28;45448;-50
2021/03/20 00:50:53;;;;;;;10.15;7.00;;;24.10;37.40;;;;;;5068068;28;45288;-50
2021/03/20 00:53:19;;;;;;;10.63;7.68;;;24.10;37.50;;;;;;5051548;28;45416;-51
2021/03/20 00:55:45;;;;;;;9.50;7.55;;;24.00;37.40;;;;;;5035008;28;45517;-50
2021/03/20 00:58:21;;;;;;;12.50;7.72;;;24.00;37.50;;;;;;5050729;28;47380;-50
2021/03/20 01:00:47;;;;;;;10.77;7.45;;;24.00;37.40;;;;;;5068917;28;45201;-52
2021/03/20 01:03:13;;;;;;;9.13;7.05;;;24.00;37.50;;;;;;5051609;28;45293;-50
2021/03/20 01:05:39;;;;;;;9.98;7.70;;;24.00;37.40;;;;;;5051587;28;45559;-50
2021/03/20 01:08:05;;;;;;;9.50;8.02;;;24.00;37.40;;;;;;5050860;28;45978;-51
2021/03/20 01:10:30;;;;;;;9.32;7.05;;;24.00;37.40;;;;;;5051122;28;45388;-51
2021/03/20 01:12:56;;;;;;;10.40;7.90;;;24.00;37.40;;;;;;5067954;28;45346;-50
2021/03/20 01:15:22;;;;;;;9.82;7.03;;;23.90;37.40;;;;;;5068014;28;45503;-51
2021/03/20 01:17:47;;;;;;;10.27;7.50;;;23.90;37.40;;;;;;5050796;28;46045;-51
2021/03/20 01:20:13;;;;;;;8.82;7.03;;;23.90;37.40;;;;;;5067650;28;45288;-51
2021/03/20 01:22:39;;;;;;;9.30;7.13;;;23.90;37.40;;;;;;5039580;28;45332;-51
2021/03/20 01:25:06;;;;;;;9.63;7.82;;;23.90;37.40;;;;;;5047100;28;45311;-51
2021/03/20 01:27:32;;;;;;;9.95;7.82;;;23.90;37.40;;;;;;5047093;28;46602;-51
2021/03/20 01:29:57;;;;;;;9.10;6.75;;;23.90;37.40;;;;;;5047447;28;45346;-50
2021/03/20 01:32:23;;;;;;;10.80;7.35;;;23.90;37.40;;;;;;5047276;28;45310;-51
2021/03/20 01:34:48;;;;;;;10.40;7.43;;;23.90;37.50;;;;;;5047886;28;45240;-50
2021/03/20 01:37:14;;;;;;;10.55;7.47;;;23.90;37.50;;;;;;5046964;28;46528;-50
2021/03/20 01:39:40;;;;;;;9.38;7.50;;;23.80;37.50;;;;;;5046789;28;45401;-51
2021/03/20 01:42:09;;;;;;;8.30;7.15;;;23.80;37.50;;;;;;5047203;28;45284;-50
2021/03/20 01:44:34;;;;;;;8.13;6.28;;;23.90;37.50;;;;;;5047511;28;45346;-50
2021/03/20 01:47:00;;;;;;;9.43;6.90;;;23.80;37.50;;;;;;5046770;28;46096;-50
2021/03/20 01:49:45;;;;;;;10.68;7.05;;;23.80;37.50;;;;;;5046870;28;45276;-51
2021/03/20 01:52:29;;;;;;;;;;;23.80;37.50;;;;;;5047930;28;45332;-54
2021/03/20 01:55:07;;;;;;;7.90;6.50;;;23.80;37.50;;;;;;5047017;28;45387;-52
2021/03/20 01:57:39;;;;;;;8.40;6.70;;;23.70;37.50;;;;;;5046243;28;46539;-51
2021/03/20 02:00:11;;;;;;;9.73;6.82;;;23.80;37.50;;;;;;5046900;28;45356;-51
2021/03/20 02:02:36;;;;;;;10.75;7.10;;;23.70;37.40;;;;;;5043654;28;45308;-51
2021/03/20 02:05:02;;;;;;;9.48;6.63;;;23.80;37.50;;;;;;5047441;28;45319;-51
2021/03/20 02:07:28;;;;;;;9.68;6.85;;;23.70;37.40;;;;;;5046598;28;47335;-51
2021/03/20 02:09:54;;;;;;;8.55;6.35;;;23.70;37.50;;;;;;5046951;28;45297;-52
2021/03/20 02:12:21;;;;;;;8.32;6.85;;;23.70;37.50;;;;;;5046192;28;45307;-50
2021/03/20 02:14:49;;;;;;;8.55;6.68;;;23.70;37.50;;;;;;5046657;28;45336;-50
2021/03/20 02:17:51;;;;;;;8.18;6.22;;;23.70;37.50;;;;;;5047739;28;45373;-50
2021/03/20 02:21:01;;;;;;;9.93;7.20;;;23.70;37.40;;;;;;5046829;28;45288;-50
2021/03/20 02:23:42;;;;;;;9.80;7.05;;;23.70;37.50;;;;;;5083192;28;45601;-50
2021/03/20 02:26:19;;;;;;;9.75;7.05;;;23.70;37.60;;;;;;5048705;28;45491;-50
2021/03/20 02:29:08;;;;;;;9.55;6.75;;;23.70;37.50;;;;;;5046156;28;45265;-50
2021/03/20 02:31:52;;;;;;;8.27;6.30;;;23.70;37.50;;;;;;5046458;28;45461;-51
2021/03/20 02:34:24;;;;;;;9.90;6.70;;;23.70;37.50;;;;;;5047789;28;45335;-51
2021/03/20 02:36:56;;;;;;;8.93;6.75;;;23.70;37.50;;;;;;5047896;28;45606;-51
2021/03/20 02:39:30;;;;;;;8.95;6.50;;;23.60;37.50;;;;;;5046231;28;45758;-50
2021/03/20 02:42:10;;;;;;;8.52;6.25;;;23.60;37.40;;;;;;5046170;28;45284;-50
2021/03/20 02:44:46;;;;;;;7.93;6.18;;;23.60;37.50;;;;;;5030581;28;45276;-51
2021/03/20 02:47:12;;;;;;;7.55;5.68;;;23.60;37.50;;;;;;5046655;28;45440;-51
2021/03/20 02:49:57;;;;;;;8.52;6.72;;;23.60;37.50;;;;;;5029302;28;48266;-50
2021/03/20 02:52:29;;;;;;;;;;;23.60;37.50;;;;;;5031699;28;45364;-52
2021/03/20 02:55:08;;;;;;;8.02;6.25;;;23.50;37.50;;;;;;5047451;28;45325;-52
2021/03/20 02:57:46;;;;;;;8.77;5.85;;;23.60;37.50;;;;;;5046264;28;45326;-49
2021/03/20 03:00:25;;;;;;;8.68;6.45;;;23.60;37.60;;;;;;5029756;28;46216;-51
2021/03/20 03:02:52;;;;;;;8.05;6.65;;;23.60;37.50;;;;;;5030357;28;45287;-51
2021/03/20 03:05:19;;;;;;;9.15;6.53;;;23.60;37.50;;;;;;5029454;28;45441;-50
2021/03/20 03:07:58;;;;;;;8.40;5.97;;;23.50;37.40;;;;;;5046256;28;45236;-50
2021/03/20 03:10:42;;;;;;;7.53;5.80;;;23.60;37.40;;;;;;5045938;28;46126;-51
2021/03/20 03:13:15;;;;;;;8.93;6.22;;;23.60;37.50;;;;;;5031258;28;45457;-51
2021/03/20 03:15:42;;;;;;;8.60;6.35;;;23.60;37.60;;;;;;5029845;28;45580;-51
2021/03/20 03:18:11;;;;;;;7.75;6.05;;;23.60;37.70;;;;;;5046298;28;45438;-51
2021/03/20 03:20:42;;;;;;;7.40;5.90;;;23.60;37.70;;;;;;5012483;28;46319;-51
2021/03/20 03:23:14;;;;;;;9.32;6.60;;;23.70;37.70;;;;;;5040762;28;45314;-51
2021/03/20 03:25:44;;;;;;;8.57;6.47;;;23.70;37.80;;;;;;5049095;28;45277;-51
2021/03/20 03:28:10;;;;;;;7.70;5.57;;;23.70;37.80;;;;;;5049792;28;45363;-51
2021/03/20 03:30:36;;;;;;;7.90;6.22;;;23.70;37.70;;;;;;5049224;28;46320;-51
2021/03/20 03:33:25;;;;;;;6.68;5.38;;;23.70;37.80;;;;;;5049340;28;45318;-51
2021/03/20 03:35:54;;;;;;;8.65;5.15;;;23.70;37.80;;;;;;5050594;28;45277;-51
2021/03/20 03:38:26;;;;;;;6.80;5.53;;;23.70;37.80;;;;;;5033237;28;45559;-51
2021/03/20 03:41:02;;;;;;;10.00;6.53;;;23.70;37.90;;;;;;5048794;28;46521;-51
2021/03/20 03:43:27;;;;;;;7.60;5.90;;;23.70;37.80;;;;;;5049303;28;45328;-51
2021/03/20 03:45:53;;;;;;;7.28;5.47;;;23.70;37.80;;;;;;5049010;28;45364;-50
2021/03/20 03:48:20;;;;;;;7.55;5.97;;;23.70;37.70;;;;;;5049176;28;45612;-50
2021/03/20 03:50:46;;;;;;;6.93;5.65;;;23.80;37.80;;;;;;5048792;28;46209;-50
2021/03/20 03:53:12;;;;;;;8.13;5.50;;;23.80;37.70;;;;;;5048889;28;45304;-50
2021/03/20 03:55:38;;;;;;;6.97;5.05;;;23.80;37.60;;;;;;5048661;28;45231;-51
2021/03/20 03:58:41;;;;;;;8.23;6.18;;;23.80;37.60;;;;;;5049261;28;45363;-50
2021/03/20 04:01:43;;;;;;;7.63;5.25;;;23.90;37.70;;;;;;5049953;28;47444;-50
2021/03/20 04:04:17;;;;;;;7.97;5.68;;;23.90;37.60;;;;;;5049747;28;45301;-50
2021/03/20 04:07:12;;;;;;;8.10;5.43;;;23.90;37.70;;;;;;5048789;28;45356;-51
2021/03/20 04:10:01;;;;;;;7.60;5.63;;;23.90;37.60;;;;;;5050360;28;45277;-50
2021/03/20 04:12:47;;;;;;;8.48;5.32;;;23.90;37.50;;;;;;5048480;28;47491;-51
2021/03/20 04:15:32;;;;;;;7.05;5.57;;;24.00;37.50;;;;;;5048867;28;45414;-50
2021/03/20 04:18:10;;;;;;;;;;;24.00;38.10;;;;;;5049089;28;45402;-50
2021/03/20 04:21:13;;;;;;;7.00;5.03;;;23.90;37.40;;;;;;5048502;28;45502;-50
2021/03/20 04:23:50;;;;;;;7.38;5.95;;;24.00;37.50;;;;;;5047761;28;45501;-50
2021/03/20 04:26:31;;;;;;;7.00;5.20;;;24.10;37.50;;;;;;5032005;28;45332;-50
2021/03/20 04:29:26;;;;;;;6.68;4.95;;;24.10;37.70;;;;;;5032053;28;45350;-50
2021/03/20 04:32:04;;;;;;;7.20;4.78;;;24.10;37.70;;;;;;5048871;28;45425;-51
2021/03/20 04:34:44;;;;;;;8.70;5.80;;;24.10;37.60;;;;;;5033113;28;46262;-50
2021/03/20 04:37:15;;;;;;;6.80;5.53;;;24.10;37.50;;;;;;5030830;28;45365;-51
2021/03/20 04:39:46;;;;;;;6.75;4.65;;;24.10;37.50;;;;;;5031643;28;45345;-50
2021/03/20 04:42:12;;;;;;;8.68;5.07;;;24.20;37.60;;;;;;5032081;28;45352;-51
2021/03/20 04:44:39;;;;;;;6.45;4.82;;;24.20;37.50;;;;;;5031071;28;46909;-51
2021/03/20 04:47:12;;;;;;;6.70;5.38;;;24.20;37.40;;;;;;5039316;28;45358;-51
2021/03/20 04:49:57;;;;;;;6.78;5.50;;;24.20;37.40;;;;;;5064139;28;45317;-50
2021/03/20 04:52:41;;;;;;;6.93;4.80;;;24.20;37.40;;;;;;5068567;28;45368;-50
2021/03/20 04:55:08;;;;;;;6.90;5.25;;;24.30;37.30;;;;;;5052071;28;46146;-50
2021/03/20 04:57:51;;;;;;;6.45;5.25;;;24.20;37.30;;;;;;5051070;28;45445;-51
2021/03/20 05:00:42;;;;;;;7.25;5.00;;;24.30;37.30;;;;;;5049245;28;45462;-51
2021/03/20 05:03:31;;;;;;;5.93;4.90;;;24.30;37.30;;;;;;5048869;28;45195;-50
2021/03/20 05:06:07;;;;;;;7.10;4.70;;;24.30;37.30;;;;;;5032905;28;46155;-50
2021/03/20 05:08:39;;;;;;;7.75;4.97;;;24.30;37.30;;;;;;5041291;28;45611;-51
2021/03/20 05:11:24;;;;;;;7.32;5.00;;;24.30;37.20;;;;;;5047817;28;45407;-51
2021/03/20 05:14:10;;;;;;;7.15;5.10;;;24.30;37.10;;;;;;5048011;28;45637;-50
2021/03/20 05:16:41;;;;;;;6.03;4.55;;;24.30;37.10;;;;;;5047502;28;46865;-50
2021/03/20 05:19:07;;;;;;;6.60;4.93;;;24.30;37.20;;;;;;5048745;28;45165;-50
2021/03/20 05:21:35;;;;;;;6.63;4.50;;;24.40;37.10;;;;;;5032791;28;45317;-51
2021/03/20 05:24:01;;;;;;;6.00;4.85;;;24.30;37.00;;;;;;5069067;28;45604;-50
2021/03/20 05:26:30;;;;;;;7.20;4.80;;;24.40;37.10;;;;;;5050769;28;46142;-50
2021/03/20 05:28:56;;;;;;;6.03;4.65;;;24.40;37.10;;;;;;5067627;28;45216;-51
2021/03/20 05:31:21;;;;;;;7.40;5.03;;;24.40;37.10;;;;;;5050572;28;45340;-51
2021/03/20 05:33:47;;;;;;;6.80;5.13;;;24.40;37.10;;;;;;5050830;28;45575;-51
2021/03/20 05:36:13;;;;;;;5.60;3.95;;;24.40;37.00;;;;;;5050336;28;47121;-51
2021/03/20 05:38:39;;;;;;;6.90;4.13;;;24.50;37.00;;;;;;5058202;28;45767;-51
2021/03/20 05:41:42;;;;;;;6.10;4.63;;;24.50;37.00;;;;;;5046950;28;45296;-50
2021/03/20 05:44:26;;;;;;;6.53;4.95;;;24.50;36.90;;;;;;5047421;28;45654;-51
2021/03/20 05:47:27;;;;;;;6.30;4.13;;;24.60;36.90;;;;;;5048128;28;48124;-51
2021/03/20 05:50:14;;;;;;;7.22;5.38;;;24.60;36.90;;;;;;5045949;28;45623;-51
2021/03/20 05:52:55;;;;;;;5.53;4.07;;;24.70;36.90;;;;;;5048411;28;45299;-51
2021/03/20 05:55:38;;;;;;;7.10;4.78;;;24.70;36.90;;;;;;5048555;28;45391;-51
2021/03/20 05:58:29;;;;;;;5.80;4.43;;;24.70;36.90;;;;;;5047816;28;47096;-50
2021/03/20 06:01:04;;;;;;;7.45;5.35;;;24.70;36.80;;;;;;5057180;28;45389;-50
2021/03/20 06:03:42;;;;;;;5.68;4.40;;;24.70;36.80;;;;;;5067040;28;45418;-51
2021/03/20 06:06:35;;;;;;;6.97;5.05;;;24.70;36.80;;;;;;5058480;28;45509;-50
2021/03/20 06:09:28;;;;;;;8.40;5.30;;;24.70;36.70;;;;;;5067325;28;45200;-53
2021/03/20 06:12:03;;;;;;;6.93;4.88;;;24.80;36.70;;;;;;5062937;28;45300;-52
2021/03/20 06:14:58;;;;;;;8.00;4.68;;;24.80;36.80;;;;;;5057913;28;45351;-53
2021/03/20 06:17:59;;;;;;;8.23;5.05;;;24.80;36.70;;;;;;5058045;28;46291;-51
2021/03/20 06:20:53;;;;;;;6.18;4.38;;;24.90;36.70;;;;;;5056532;28;46139;-51
2021/03/20 06:23:44;;;;;;;6.65;4.93;;;24.90;36.70;;;;;;5056557;28;45485;-51
2021/03/20 06:26:26;;;;;;;6.20;4.65;;;24.90;36.70;;;;;;5055984;28;45318;-51
2021/03/20 06:28:55;;;;;;;7.28;4.75;;;24.90;36.70;;;;;;5038427;28;45741;-51
2021/03/20 06:31:26;;;;;;;6.07;4.47;;;24.90;36.70;;;;;;5055936;28;45974;-52
2021/03/20 06:34:26;;;;;;;6.28;4.82;;;24.90;36.60;;;;;;5055059;28;45438;-50
2021/03/20 06:37:08;;;;;;;6.07;4.50;;;25.00;36.60;;;;;;5042333;28;45443;-51
2021/03/20 06:39:54;;;;;;;7.95;4.82;;;25.00;36.60;;;;;;5054874;28;45402;-51
2021/03/20 06:42:21;;;;;;;7.43;4.85;;;25.00;36.60;;;;;;5055779;28;47185;-51
2021/03/20 06:44:48;;;;;;;5.80;4.53;;;25.00;36.60;;;;;;5056583;28;45371;-50
2021/03/20 06:47:23;;;;;;;5.47;4.13;;;25.00;36.50;;;;;;5054489;28;45223;-50
2021/03/20 06:50:03;;;;;;;7.18;4.10;;;25.10;36.50;;;;;;5055215;28;45530;-50
2021/03/20 06:52:30;;;;;;;9.02;5.55;;;25.10;36.50;;;;;;5054751;28;46422;-50
2021/03/20 06:55:00;;;;;;;6.80;4.88;;;25.10;36.50;;;;;;5038159;28;45638;-50
2021/03/20 06:57:26;;;;;;;6.68;4.47;;;25.10;36.50;;;;;;5052675;28;45418;-51
2021/03/20 06:59:56;;;;;;;5.03;4.18;;;25.10;36.50;;;;;;5055266;28;45354;-51
2021/03/20 07:02:30;;;;;;;6.78;4.53;;;25.10;36.50;;;;;;5058175;28;45418;-51
2021/03/20 07:05:02;;;;;;;7.53;4.68;;;25.10;36.50;;;;;;5055497;28;45477;-51
2021/03/20 07:08:02;;;;;;;6.45;4.60;;;25.10;36.50;;;;;;5052711;28;45519;-51
2021/03/20 07:10:38;;;;;;;5.53;3.90;;;25.10;36.50;;;;;;5066227;28;45497;-51
2021/03/20 07:13:19;;;;;;;6.72;4.65;;;25.20;36.60;;;;;;5055314;28;47215;-50
2021/03/20 07:15:47;;;;;;;6.55;4.43;;;25.20;36.60;;;;;;5056544;28;45293;-50
2021/03/20 07:18:32;;;;;;;7.28;5.47;;;25.20;36.50;;;;;;5052704;28;45469;-50
2021/03/20 07:20:59;;;;;;;6.93;4.28;;;25.20;36.50;;;;;;5056306;28;45640;-50
2021/03/20 07:23:25;;;;;;;6.80;4.78;;;25.20;36.50;;;;;;5052714;28;47006;-50
2021/03/20 07:25:52;;;;;;;7.32;4.75;;;25.20;36.50;;;;;;5053411;28;45378;-51
2021/03/20 07:28:24;;;;;;;6.97;4.43;;;25.20;36.50;;;;;;5054246;28;45641;-52
2021/03/20 07:30:59;;;;;;;7.18;4.95;;;25.20;36.60;;;;;;5055842;28;45578;-50
2021/03/20 07:33:34;;;;;;;5.85;4.13;;;25.20;36.50;;;;;;5053534;28;45364;-50
2021/03/20 07:36:15;;;;;;;5.68;3.97;;;25.20;36.60;;;;;;5052912;28;45569;-50
2021/03/20 07:38:41;;;;;;;6.10;4.10;;;25.30;36.50;;;;;;5053571;28;45390;-50
2021/03/20 07:41:09;;;;;;;6.75;4.07;;;25.30;36.60;;;;;;5054269;28;45515;-50
2021/03/20 07:43:35;;;;;;;8.48;4.22;;;25.30;36.70;;;;;;5052137;28;46877;-50
2021/03/20 07:46:06;;;;;;;5.63;4.20;;;25.30;36.60;;;;;;5039563;28;45352;-50
2021/03/20 07:48:32;;;;;;;7.05;4.65;;;25.30;36.50;;;;;;5028303;28;45321;-50
2021/03/20 07:50:57;;;;;;;7.78;4.28;;;25.30;36.60;;;;;;5054597;28;45569;-50
2021/03/20 07:53:23;;;;;;;6.03;4.18;;;25.30;36.50;;;;;;5056008;28;46264;-50
2021/03/20 07:55:56;;;;;;;5.88;4.10;;;25.30;36.50;;;;;;5036364;28;45522;-51
2021/03/20 07:58:31;;;;;;;6.13;4.55;;;25.30;36.50;;;;;;5036787;28;45472;-50
2021/03/20 08:01:01;;;;;;;5.93;4.13;;;25.30;36.50;;;;;;5055788;28;45439;-50
2021/03/20 08:03:32;;;;;;;6.05;4.65;;;25.40;36.50;;;;;;5052643;28;45965;-51
2021/03/20 08:06:13;;;;;;;5.15;4.15;;;25.40;37.10;;;;;;5037437;28;45495;-51
2021/03/20 08:08:39;;;;;;;6.32;4.10;;;25.40;36.50;;;;;;5055535;28;45297;-51
2021/03/20 08:11:05;;;;;;;9.23;4.22;;;25.40;36.60;;;;;;5037246;28;46348;-51
2021/03/20 08:13:43;;;;;;;5.32;3.90;;;25.40;36.60;;;;;;5055855;28;46903;-52
2021/03/20 08:16:09;;;;;;;6.00;4.00;;;25.50;36.50;;;;;;5057484;28;45352;-51
2021/03/20 08:18:36;;;;;;;7.55;4.25;;;25.40;36.50;;;;;;5038717;28;45358;-51
2021/03/20 08:21:05;;;;;;;9.82;4.70;;;25.40;36.70;;;;;;5055654;28;45641;-51
2021/03/20 08:24:01;;;;;;;11.00;5.68;;;25.40;36.80;;;;;;5063560;28;46765;-51
2021/03/20 08:26:54;;;;;;;7.22;5.55;;;25.40;34.30;;;;;;5058321;28;45259;-53
2021/03/20 08:29:41;;;;;;;9.88;5.40;;;25.40;34.40;;;;;;5048197;28;45452;-51
2021/03/20 08:32:24;;;;;;;9.57;5.82;;;25.30;35.30;;;;;;5070024;28;45237;-51
2021/03/20 08:35:20;;;;;;;6.90;4.90;;;25.30;35.80;;;;;;5054068;28;45359;-51
2021/03/20 08:38:06;;;;;;;12.60;5.22;;;25.30;36.00;;;;;;5049031;28;45331;-51
2021/03/20 08:40:38;;;;;;;12.13;5.18;;;25.30;36.10;;;;;;5049038;28;45363;-63
2021/03/20 08:43:30;;;;;;;11.15;4.68;;;25.30;36.40;;;;;;5068759;28;45378;-51
2021/03/20 08:46:14;;;;;;;12.32;5.65;;;25.30;36.80;;;;;;5058666;28;46178;-51
2021/03/20 08:49:06;;;;;;;11.97;5.90;;;25.30;36.80;;;;;;5054864;28;45572;-53
2021/03/20 08:51:52;;;;;;;10.57;5.30;;;25.30;36.60;;;;;;5048512;28;45324;-52
2021/03/20 08:54:40;;;;;;;12.52;5.22;;;25.30;36.60;;;;;;5041508;28;45483;-52
2021/03/20 08:57:14;;;;;;;14.13;5.70;;;25.40;36.50;;;;;;5058051;28;45289;-52
2021/03/20 08:59:44;;;;;;;13.90;6.13;;;25.40;35.90;;;;;;5058637;28;45366;-53
2021/03/20 09:02:22;;;;;;;10.65;6.47;;;25.40;35.80;;;;;;5044556;28;45332;-52
2021/03/20 09:04:58;;;;;;;10.77;5.30;;;25.40;35.90;;;;;;5065996;28;45466;-52
2021/03/20 09:07:31;;;;;;;9.63;6.35;;;25.40;35.70;;;;;;5058171;28;47724;-51
2021/03/20 09:10:02;;;;;;;9.18;6.10;;;25.40;35.00;;;;;;5052526;28;45485;-50
2021/03/20 09:12:39;;;;;;;16.55;5.97;;;25.30;34.90;;;;;;5051965;28;45469;-48
2021/03/20 09:15:07;;;;;;;11.18;5.45;;;25.30;35.60;;;;;;5069322;28;45523;-51
2021/03/20 09:17:34;;;;;;;10.05;5.43;;;25.40;35.70;;;;;;5061978;28;45399;-50
2021/03/20 09:20:21;;;;;;;10.13;4.95;;;25.40;35.60;;;;;;5044348;28;45563;-50
2021/03/20 09:22:47;;;;;;;13.25;5.80;;;25.40;35.70;;;;;;5068133;28;45656;-50
2021/03/20 09:25:19;;;;;;;9.27;5.50;;;25.40;35.50;;;;;;5049058;28;45627;-51
2021/03/20 09:28:12;;;;;;;11.93;5.00;;;25.30;35.30;;;;;;5071376;28;46240;-49
2021/03/20 09:30:48;;;;;;;9.93;5.10;;;25.40;35.80;;;;;;5067368;28;45455;-49
2021/03/20 09:33:25;;;;;;;9.68;5.10;;;25.30;36.10;;;;;;5045784;28;46006;-48
2021/03/20 09:35:53;;;;;;;10.90;4.80;;;25.40;36.50;;;;;;5067539;28;45554;-48
2021/03/20 09:38:34;;;;;;;9.57;4.50;;;25.30;36.50;;;;;;5073559;28;45700;-49
2021/03/20 09:41:24;;;;;;;9.98;4.70;;;25.30;36.60;;;;;;5068026;28;45398;-48
2021/03/20 09:43:59;;;;;;;8.45;5.00;;;25.40;36.90;;;;;;5070963;28;45677;-48
2021/03/20 09:46:41;;;;;;;6.78;4.25;;;25.40;36.90;;;;;;5067353;27;45703;-48
2021/03/20 09:49:06;;;;;;;9.70;3.80;;;25.40;37.10;;;;;;5069238;28;45774;-49
2021/03/20 09:52:05;;;;;;;14.77;4.32;;;25.40;37.10;;;;;;5067774;28;45503;-48
2021/03/20 09:54:43;;;;;;;12.73;4.97;;;25.40;37.20;;;;;;5051985;28;45864;-48
2021/03/20 09:59:34;;;;;;;11.38;7.03;;;25.30;35.80;;;;;;5077879;28;46274;-49
2021/03/20 10:02:09;;;;;;;9.98;7.32;;;25.30;34.00;;;;;;5079316;28;45439;-49
2021/03/20 10:04:35;;;;;;;;;;;25.30;32.20;;;;;;5077016;27;45531;-49
2021/03/20 10:07:20;;;;;;;10.30;5.40;;;25.20;30.40;;;;;;5070322;28;45618;-50
2021/03/20 10:10:13;;;;;;;11.73;5.47;;;25.20;32.60;;;;;;5079724;28;45704;-51
2021/03/20 10:12:50;;;;;;;8.65;5.65;;;25.20;33.30;;;;;;5071422;28;45551;-49
2021/03/20 10:15:30;;;;;;;10.05;5.40;;;25.20;33.60;;;;;;5070405;28;45438;-49
2021/03/20 10:18:11;;;;;;;9.48;5.10;;;25.20;34.00;;;;;;5073734;28;45536;-49
2021/03/20 10:20:51;;;;;;;14.48;5.95;;;25.20;34.10;;;;;;5068376;28;45655;-50
2021/03/20 10:23:25;;;;;;;12.00;5.18;;;25.20;33.00;;;;;;5068130;28;45455;-49
2021/03/20 10:25:53;;;;;;;8.75;4.72;;;25.20;33.90;;;;;;5076167;28;45470;-49
2021/03/20 10:28:19;;;;;;;15.95;4.90;;;25.20;34.20;;;;;;5058611;28;45604;-49
2021/03/20 10:31:14;;;;;;;9.68;4.97;;;25.10;34.40;;;;;;5046914;28;45514;-49
2021/03/20 10:33:41;;;;;;;;;;;25.10;34.20;;;;;;5071613;28;45575;-49
2021/03/20 10:36:15;;;;;;;15.90;4.78;;;25.00;34.60;;;;;;5068146;28;45576;-49
2021/03/20 10:38:42;;;;;;;9.93;4.25;;;25.10;34.80;;;;;;5078072;28;45456;-49
2021/03/20 10:41:11;;;;;;;11.13;3.92;;;25.20;34.90;;;;;;5052858;28;45517;-50
2021/03/20 10:43:56;;;;;;;11.57;4.85;;;25.20;35.00;;;;;;5074979;28;45390;-49
2021/03/20 10:46:30;;;;;;;8.40;4.32;;;25.20;35.10;;;;;;5069075;28;45396;-49
2021/03/20 10:48:57;;;;;;;8.75;4.60;;;25.20;35.30;;;;;;5066333;28;45631;-50
2021/03/20 10:51:24;;;;;;;9.90;4.15;;;25.20;35.40;;;;;;5061404;28;46301;-49
2021/03/20 10:54:15;;;;;;;11.10;4.03;;;25.20;35.50;;;;;;5058550;28;45434;-49
2021/03/20 10:56:40;;;;;;;5.85;3.95;;;25.20;35.60;;;;;;5059841;28;45529;-51
2021/03/20 10:59:27;;;;;;;7.20;4.63;;;25.20;35.70;;;;;;5044891;28;45425;-49
2021/03/20 11:01:53;;;;;;;12.20;4.35;;;25.30;35.90;;;;;;5074968;28;46043;-49
2021/03/20 11:04:31;;;;;;;10.90;4.05;;;25.30;36.20;;;;;;5050003;28;45371;-49
2021/03/20 11:06:57;;;;;;;9.77;4.05;;;25.30;36.30;;;;;;5062052;28;45476;-49
2021/03/20 11:09:30;;;;;;;7.18;4.03;;;25.20;36.20;;;;;;5065193;28;45585;-49
2021/03/20 11:12:00;;;;;;;6.15;3.90;;;25.30;36.40;;;;;;5045586;28;45901;-49
2021/03/20 11:14:26;;;;;;;8.15;4.15;;;25.30;36.40;;;;;;5043187;28;45348;-49
2021/03/20 11:16:59;;;;;;;9.68;4.10;;;25.20;36.50;;;;;;5046436;28;46233;-48
2021/03/20 11:19:25;;;;;;;9.63;4.30;;;25.20;36.70;;;;;;5065456;28;46062;-49
2021/03/20 11:21:57;;;;;;;9.85;4.75;;;25.20;36.70;;;;;;5068391;28;45275;-49
2021/03/20 11:24:35;;;;;;;7.90;3.83;;;25.20;36.70;;;;;;5058628;28;45434;-49
2021/03/20 11:27:34;;;;;;;8.88;4.22;;;25.20;36.80;;;;;;5083068;28;45163;-50
2021/03/20 11:30:03;;;;;;;5.53;3.60;;;25.20;36.90;;;;;;5083610;27;45521;-50
2021/03/20 11:32:35;;;;;;;8.60;4.75;;;25.20;36.90;;;;;;5075382;28;46022;-49
2021/03/20 11:35:05;;;;;;;7.72;4.32;;;25.20;36.90;;;;;;5054208;28;45503;-50
2021/03/20 11:37:31;;;;;;;8.23;5.55;;;25.20;36.80;;;;;;5063396;28;45337;-50
2021/03/20 11:39:57;;;;;;;7.20;4.35;;;25.10;36.60;;;;;;5065771;28;45482;-50
2021/03/20 11:42:27;;;;;;;11.02;4.85;;;25.10;36.70;;;;;;5068654;28;46213;-49
2021/03/20 11:44:53;;;;;;;7.00;4.40;;;25.10;36.60;;;;;;5061524;28;45466;-50
2021/03/20 11:47:29;;;;;;;5.68;4.30;;;25.10;36.40;;;;;;5055475;28;45540;-50
2021/03/20 11:49:56;;;;;;;10.30;4.82;;;25.10;36.30;;;;;;5085049;28;45708;-49
2021/03/20 11:52:27;;;;;;;7.47;5.07;;;25.00;36.30;;;;;;5061504;28;46932;-51
2021/03/20 11:55:05;;;;;;;10.05;4.57;;;25.10;36.20;;;;;;5058546;28;45459;-49
2021/03/20 11:57:34;;;;;;;9.10;4.35;;;25.00;36.20;;;;;;5078701;28;45395;-50
2021/03/20 11:59:59;;;;;;;9.95;5.15;;;25.00;36.40;;;;;;5077836;28;46200;-49
2021/03/20 12:02:25;;;;;;;8.68;4.50;;;25.00;36.60;;;;;;5057570;28;45543;-49
2021/03/20 12:05:13;;;;;;;10.27;4.43;;;24.90;36.60;;;;;;5072477;28;45507;-50
2021/03/20 12:07:40;;;;;;;7.45;4.18;;;24.90;36.70;;;;;;5074228;27;45502;-49
2021/03/20 12:10:19;;;;;;;8.15;4.38;;;24.90;36.90;;;;;;5051063;28;45475;-50
2021/03/20 12:12:53;;;;;;;7.70;4.20;;;24.90;37.20;;;;;;5070981;28;45416;-50
2021/03/20 12:15:21;;;;;;;9.45;4.68;;;24.90;37.30;;;;;;5069825;28;45357;-49
2021/03/20 12:17:48;;;;;;;6.32;3.58;;;24.90;37.50;;;;;;5065788;28;46236;-49
2021/03/20 12:20:25;;;;;;;7.90;4.40;;;24.90;37.60;;;;;;5059941;28;45414;-49
2021/03/20 12:22:51;;;;;;;6.57;3.80;;;24.90;37.80;;;;;;5072209;28;46281;-49
2021/03/20 12:25:36;;;;;;;8.60;4.32;;;24.90;37.80;;;;;;5057734;28;45416;-49
2021/03/20 12:28:24;;;;;;;10.25;3.92;;;24.90;37.80;;;;;;5064469;28;45232;-49
2021/03/20 12:31:04;;;;;;;6.53;4.63;;;24.80;37.80;;;;;;5069075;28;45442;-49
2021/03/20 12:33:29;;;;;;;10.07;3.85;;;24.80;37.80;;;;;;5066916;28;47078;-49
2021/03/20 12:35:55;;;;;;;6.22;3.85;;;24.80;37.80;;;;;;5050658;28;45426;-49
2021/03/20 12:38:25;;;;;;;6.45;3.78;;;24.80;37.90;;;;;;5061874;28;45299;-49
2021/03/20 12:41:01;;;;;;;8.57;4.28;;;24.80;38.10;;;;;;5050665;28;45626;-50
2021/03/20 12:43:35;;;;;;;7.30;3.92;;;24.70;38.30;;;;;;5073658;28;45441;-49
2021/03/20 12:46:06;;;;;;;8.70;4.15;;;24.70;38.20;;;;;;5076500;28;45547;-50
2021/03/20 12:48:37;;;;;;;8.25;4.13;;;24.70;38.30;;;;;;5080775;28;45203;-50
2021/03/20 12:51:22;;;;;;;5.75;3.50;;;24.70;38.40;;;;;;5066960;28;45512;-50
2021/03/20 12:53:48;;;;;;;16.95;4.38;;;24.70;38.20;;;;;;5075595;28;45449;-50
2021/03/20 12:56:14;;;;;;;8.38;3.50;;;24.70;38.20;;;;;;5064426;28;45394;-49
2021/03/20 12:58:40;;;;;;;10.90;4.43;;;24.70;38.00;;;;;;5050718;28;45452;-49
2021/03/20 13:01:05;;;;;;;8.38;4.15;;;24.60;38.00;;;;;;5052634;28;45431;-49
2021/03/20 13:03:32;;;;;;;7.30;3.53;;;24.60;38.00;;;;;;5051372;28;47236;-49
2021/03/20 13:05:57;;;;;;;7.10;4.07;;;24.60;38.10;;;;;;5079766;28;45317;-49
2021/03/20 13:08:23;;;;;;;6.25;3.55;;;24.60;38.40;;;;;;5055647;28;45381;-49
2021/03/20 13:10:49;;;;;;;6.60;3.75;;;24.60;38.50;;;;;;5076467;28;45353;-49
2021/03/20 13:13:14;;;;;;;6.28;3.88;;;24.60;38.50;;;;;;5066636;28;46258;-49
2021/03/20 13:15:40;;;;;;;5.93;3.63;;;24.60;38.60;;;;;;5064695;28;45770;-48
2021/03/20 13:18:06;;;;;;;7.78;3.50;;;24.60;38.60;;;;;;5067445;28;45498;-49
2021/03/20 13:20:31;;;;;;;5.20;3.35;;;24.50;38.60;;;;;;5062145;28;45762;-50
2021/03/20 13:22:57;;;;;;;7.47;3.33;;;24.50;38.50;;;;;;5057600;28;46865;-50
2021/03/20 13:25:41;;;;;;;6.82;3.63;;;24.50;38.40;;;;;;5056479;28;45655;-49